Terminal Aerodrome Forecast
Issued by NWS

Home | Current Version | Previous Version | Text Only | Print | Product List | Glossary On
Versions: 1 2 3 4 5 6 7 8 9 10 11 12 13
000
FTUS45 KRIW 221720
TAFWRL
TAF
KWRL 221720Z 2218/2318 11008KT P6SM SKC
     FM230130 VRB05KT P6SM SKC
     FM231100 31011KT P6SM BKN090
     FM231600 31011KT 5SM -SHRASN SCT015 BKN025 OVC035=

USA.gov is the U.S. government's official web portal to all federal, state and local government web resources and services.